sensor_id;sensor_type;location;lat;lon;timestamp;P1;durP1;ratioP1;P2;durP2;ratioP2
55025;SDS011;40925;45.666;18.994;2023-07-31T00:00:15;5.07;;;4.13;;
55025;SDS011;40925;45.666;18.994;2023-07-31T00:02:41;5.35;;;4.07;;
55025;SDS011;40925;45.666;18.994;2023-07-31T00:05:08;6.22;;;4.55;;
55025;SDS011;40925;45.666;18.994;2023-07-31T00:07:35;6.93;;;4.60;;
55025;SDS011;40925;45.666;18.994;2023-07-31T00:10:01;5.65;;;4.70;;
55025;SDS011;40925;45.666;18.994;2023-07-31T00:12:27;5.45;;;4.57;;
55025;SDS011;40925;45.666;18.994;2023-07-31T00:14:53;6.47;;;5.15;;
55025;SDS011;40925;45.666;18.994;2023-07-31T00:17:19;5.38;;;4.70;;
55025;SDS011;40925;45.666;18.994;2023-07-31T00:19:45;9.50;;;5.10;;
55025;SDS011;40925;45.666;18.994;2023-07-31T00:22:11;6.10;;;4.90;;
55025;SDS011;40925;45.666;18.994;2023-07-31T00:24:37;8.82;;;4.93;;
55025;SDS011;40925;45.666;18.994;2023-07-31T00:27:03;8.32;;;5.07;;
55025;SDS011;40925;45.666;18.994;2023-07-31T00:29:29;6.55;;;4.72;;
55025;SDS011;40925;45.666;18.994;2023-07-31T00:31:55;8.07;;;5.10;;
55025;SDS011;40925;45.666;18.994;2023-07-31T00:34:21;5.65;;;4.70;;
55025;SDS011;40925;45.666;18.994;2023-07-31T00:36:48;7.88;;;4.75;;
55025;SDS011;40925;45.666;18.994;2023-07-31T00:39:15;9.00;;;4.75;;
55025;SDS011;40925;45.666;18.994;2023-07-31T00:41:41;7.13;;;4.90;;
55025;SDS011;40925;45.666;18.994;2023-07-31T00:44:07;6.30;;;4.70;;
55025;SDS011;40925;45.666;18.994;2023-07-31T00:46:33;7.10;;;4.50;;
55025;SDS011;40925;45.666;18.994;2023-07-31T00:48:59;7.20;;;4.43;;
55025;SDS011;40925;45.666;18.994;2023-07-31T00:51:25;5.35;;;4.43;;
55025;SDS011;40925;45.666;18.994;2023-07-31T00:53:51;8.07;;;4.28;;
55025;SDS011;40925;45.666;18.994;2023-07-31T00:56:19;5.70;;;4.03;;
55025;SDS011;40925;45.666;18.994;2023-07-31T00:58:45;6.90;;;4.20;;
55025;SDS011;40925;45.666;18.994;2023-07-31T01:01:10;5.20;;;4.20;;
55025;SDS011;40925;45.666;18.994;2023-07-31T01:03:36;5.78;;;3.80;;
55025;SDS011;40925;45.666;18.994;2023-07-31T01:06:15;5.28;;;3.75;;
55025;SDS011;40925;45.666;18.994;2023-07-31T01:08:54;6.82;;;3.70;;
55025;SDS011;40925;45.666;18.994;2023-07-31T01:11:33;5.68;;;3.97;;
55025;SDS011;40925;45.666;18.994;2023-07-31T01:14:03;5.82;;;3.40;;
55025;SDS011;40925;45.666;18.994;2023-07-31T01:16:29;4.88;;;3.33;;
55025;SDS011;40925;45.666;18.994;2023-07-31T01:18:55;4.68;;;3.38;;
55025;SDS011;40925;45.666;18.994;2023-07-31T01:26:34;4.05;;;2.88;;
55025;SDS011;40925;45.666;18.994;2023-07-31T01:29:05;4.70;;;2.80;;
55025;SDS011;40925;45.666;18.994;2023-07-31T01:31:41;6.82;;;3.35;;
55025;SDS011;40925;45.666;18.994;2023-07-31T01:34:09;5.13;;;3.42;;
55025;SDS011;40925;45.666;18.994;2023-07-31T01:36:36;5.72;;;3.55;;
55025;SDS011;40925;45.666;18.994;2023-07-31T01:39:02;5.60;;;3.65;;
55025;SDS011;40925;45.666;18.994;2023-07-31T01:41:28;5.30;;;3.97;;
55025;SDS011;40925;45.666;18.994;2023-07-31T01:43:54;6.50;;;4.00;;
55025;SDS011;40925;45.666;18.994;2023-07-31T01:46:20;7.40;;;3.90;;
55025;SDS011;40925;45.666;18.994;2023-07-31T01:48:46;5.82;;;4.15;;
55025;SDS011;40925;45.666;18.994;2023-07-31T01:51:11;4.50;;;3.78;;
55025;SDS011;40925;45.666;18.994;2023-07-31T01:53:37;5.93;;;4.10;;
55025;SDS011;40925;45.666;18.994;2023-07-31T01:56:03;5.00;;;3.92;;
55025;SDS011;40925;45.666;18.994;2023-07-31T01:58:29;5.28;;;3.60;;
55025;SDS011;40925;45.666;18.994;2023-07-31T02:00:55;5.25;;;3.78;;
55025;SDS011;40925;45.666;18.994;2023-07-31T02:03:21;6.20;;;3.72;;
55025;SDS011;40925;45.666;18.994;2023-07-31T02:05:48;4.35;;;3.60;;
55025;SDS011;40925;45.666;18.994;2023-07-31T02:08:14;5.95;;;3.60;;
55025;SDS011;40925;45.666;18.994;2023-07-31T02:10:41;6.28;;;3.67;;
55025;SDS011;40925;45.666;18.994;2023-07-31T02:13:07;6.93;;;3.60;;
55025;SDS011;40925;45.666;18.994;2023-07-31T02:15:33;5.00;;;3.45;;
55025;SDS011;40925;45.666;18.994;2023-07-31T02:18:00;9.38;;;3.67;;
55025;SDS011;40925;45.666;18.994;2023-07-31T02:20:26;5.05;;;3.47;;
55025;SDS011;40925;45.666;18.994;2023-07-31T02:22:52;3.80;;;3.40;;
55025;SDS011;40925;45.666;18.994;2023-07-31T02:25:21;5.68;;;3.38;;
55025;SDS011;40925;45.666;18.994;2023-07-31T02:27:47;5.68;;;3.80;;
55025;SDS011;40925;45.666;18.994;2023-07-31T02:30:16;6.47;;;3.85;;
55025;SDS011;40925;45.666;18.994;2023-07-31T02:32:42;6.35;;;3.35;;
55025;SDS011;40925;45.666;18.994;2023-07-31T02:35:08;4.93;;;3.33;;
55025;SDS011;40925;45.666;18.994;2023-07-31T02:37:34;5.80;;;3.80;;
55025;SDS011;40925;45.666;18.994;2023-07-31T02:40:00;5.22;;;3.50;;
55025;SDS011;40925;45.666;18.994;2023-07-31T02:42:26;4.22;;;3.53;;
55025;SDS011;40925;45.666;18.994;2023-07-31T02:44:52;6.28;;;3.25;;
55025;SDS011;40925;45.666;18.994;2023-07-31T02:47:21;6.95;;;3.60;;
55025;SDS011;40925;45.666;18.994;2023-07-31T02:49:47;5.00;;;3.33;;
55025;SDS011;40925;45.666;18.994;2023-07-31T02:52:13;5.47;;;3.53;;
55025;SDS011;40925;45.666;18.994;2023-07-31T02:54:39;4.53;;;3.53;;
55025;SDS011;40925;45.666;18.994;2023-07-31T02:57:05;5.07;;;3.50;;
55025;SDS011;40925;45.666;18.994;2023-07-31T02:59:31;4.97;;;3.47;;
55025;SDS011;40925;45.666;18.994;2023-07-31T03:01:57;6.32;;;3.40;;
55025;SDS011;40925;45.666;18.994;2023-07-31T03:04:23;5.20;;;3.63;;
55025;SDS011;40925;45.666;18.994;2023-07-31T03:06:49;5.93;;;3.97;;
55025;SDS011;40925;45.666;18.994;2023-07-31T03:09:15;4.57;;;3.60;;
55025;SDS011;40925;45.666;18.994;2023-07-31T03:11:42;5.72;;;3.60;;
55025;SDS011;40925;45.666;18.994;2023-07-31T03:14:08;6.15;;;3.40;;
55025;SDS011;40925;45.666;18.994;2023-07-31T03:16:34;5.05;;;3.60;;
55025;SDS011;40925;45.666;18.994;2023-07-31T03:19:00;5.20;;;3.40;;
55025;SDS011;40925;45.666;18.994;2023-07-31T03:21:26;6.68;;;3.88;;
55025;SDS011;40925;45.666;18.994;2023-07-31T03:23:52;6.53;;;3.70;;
55025;SDS011;40925;45.666;18.994;2023-07-31T03:26:18;5.30;;;3.80;;
55025;SDS011;40925;45.666;18.994;2023-07-31T03:28:44;6.05;;;3.47;;
55025;SDS011;40925;45.666;18.994;2023-07-31T03:31:11;4.47;;;3.17;;
55025;SDS011;40925;45.666;18.994;2023-07-31T03:33:37;6.35;;;3.40;;
55025;SDS011;40925;45.666;18.994;2023-07-31T03:36:03;5.40;;;3.20;;
55025;SDS011;40925;45.666;18.994;2023-07-31T03:38:31;4.38;;;3.30;;
55025;SDS011;40925;45.666;18.994;2023-07-31T03:40:57;4.38;;;3.33;;
55025;SDS011;40925;45.666;18.994;2023-07-31T03:43:24;4.85;;;3.20;;
55025;SDS011;40925;45.666;18.994;2023-07-31T03:45:50;5.70;;;3.10;;
55025;SDS011;40925;45.666;18.994;2023-07-31T03:48:16;4.30;;;2.90;;
55025;SDS011;40925;45.666;18.994;2023-07-31T03:50:42;4.75;;;3.00;;
55025;SDS011;40925;45.666;18.994;2023-07-31T03:53:08;5.10;;;3.00;;
55025;SDS011;40925;45.666;18.994;2023-07-31T03:55:34;3.67;;;2.65;;
55025;SDS011;40925;45.666;18.994;2023-07-31T03:58:00;5.47;;;2.72;;
55025;SDS011;40925;45.666;18.994;2023-07-31T04:00:26;4.60;;;2.80;;
55025;SDS011;40925;45.666;18.994;2023-07-31T04:02:52;4.18;;;2.90;;
55025;SDS011;40925;45.666;18.994;2023-07-31T04:05:19;4.53;;;2.30;;
55025;SDS011;40925;45.666;18.994;2023-07-31T04:07:45;3.78;;;2.47;;
55025;SDS011;40925;45.666;18.994;2023-07-31T04:10:11;5.25;;;2.65;;
55025;SDS011;40925;45.666;18.994;2023-07-31T04:12:37;5.82;;;2.30;;
55025;SDS011;40925;45.666;18.994;2023-07-31T04:15:03;4.25;;;2.47;;
55025;SDS011;40925;45.666;18.994;2023-07-31T04:17:29;3.83;;;2.53;;
55025;SDS011;40925;45.666;18.994;2023-07-31T04:19:55;4.57;;;2.40;;
55025;SDS011;40925;45.666;18.994;2023-07-31T04:22:21;4.47;;;2.22;;
55025;SDS011;40925;45.666;18.994;2023-07-31T04:24:47;3.25;;;2.05;;
55025;SDS011;40925;45.666;18.994;2023-07-31T04:27:12;3.60;;;2.35;;
55025;SDS011;40925;45.666;18.994;2023-07-31T04:29:38;6.53;;;2.30;;
55025;SDS011;40925;45.666;18.994;2023-07-31T04:32:05;3.95;;;2.33;;
55025;SDS011;40925;45.666;18.994;2023-07-31T04:34:31;3.08;;;2.33;;
55025;SDS011;40925;45.666;18.994;2023-07-31T04:36:56;3.47;;;2.20;;
55025;SDS011;40925;45.666;18.994;2023-07-31T04:39:22;5.38;;;2.40;;
55025;SDS011;40925;45.666;18.994;2023-07-31T04:41:48;3.72;;;2.10;;
55025;SDS011;40925;45.666;18.994;2023-07-31T04:44:14;2.97;;;2.20;;
55025;SDS011;40925;45.666;18.994;2023-07-31T04:46:40;3.28;;;2.28;;
55025;SDS011;40925;45.666;18.994;2023-07-31T04:49:06;3.30;;;2.17;;
55025;SDS011;40925;45.666;18.994;2023-07-31T04:51:32;4.45;;;2.10;;
55025;SDS011;40925;45.666;18.994;2023-07-31T04:53:58;4.07;;;2.08;;
55025;SDS011;40925;45.666;18.994;2023-07-31T04:56:24;2.97;;;2.17;;
55025;SDS011;40925;45.666;18.994;2023-07-31T04:58:50;5.35;;;2.30;;
55025;SDS011;40925;45.666;18.994;2023-07-31T05:01:16;3.65;;;1.92;;
55025;SDS011;40925;45.666;18.994;2023-07-31T05:03:42;4.03;;;2.40;;
55025;SDS011;40925;45.666;18.994;2023-07-31T05:06:08;5.05;;;2.40;;
55025;SDS011;40925;45.666;18.994;2023-07-31T05:08:37;3.92;;;2.10;;
55025;SDS011;40925;45.666;18.994;2023-07-31T05:11:03;3.83;;;2.05;;
55025;SDS011;40925;45.666;18.994;2023-07-31T05:13:29;4.05;;;2.47;;
55025;SDS011;40925;45.666;18.994;2023-07-31T05:15:55;3.70;;;2.22;;
55025;SDS011;40925;45.666;18.994;2023-07-31T05:18:21;3.78;;;2.20;;
55025;SDS011;40925;45.666;18.994;2023-07-31T05:20:49;3.13;;;2.00;;
55025;SDS011;40925;45.666;18.994;2023-07-31T05:23:15;5.38;;;2.33;;
55025;SDS011;40925;45.666;18.994;2023-07-31T05:25:41;3.15;;;1.95;;
55025;SDS011;40925;45.666;18.994;2023-07-31T05:28:11;4.82;;;2.00;;
55025;SDS011;40925;45.666;18.994;2023-07-31T05:30:37;2.80;;;2.00;;
55025;SDS011;40925;45.666;18.994;2023-07-31T05:33:03;3.58;;;1.90;;
55025;SDS011;40925;45.666;18.994;2023-07-31T05:35:29;4.65;;;1.90;;
55025;SDS011;40925;45.666;18.994;2023-07-31T05:37:54;4.85;;;1.90;;
55025;SDS011;40925;45.666;18.994;2023-07-31T05:40:20;3.38;;;2.03;;
55025;SDS011;40925;45.666;18.994;2023-07-31T05:42:46;3.47;;;2.00;;
55025;SDS011;40925;45.666;18.994;2023-07-31T05:45:12;3.45;;;1.98;;
55025;SDS011;40925;45.666;18.994;2023-07-31T05:47:38;3.30;;;1.70;;
55025;SDS011;40925;45.666;18.994;2023-07-31T05:50:04;2.50;;;1.73;;
55025;SDS011;40925;45.666;18.994;2023-07-31T05:52:30;2.63;;;1.73;;
55025;SDS011;40925;45.666;18.994;2023-07-31T05:54:56;2.85;;;1.80;;
55025;SDS011;40925;45.666;18.994;2023-07-31T05:57:22;3.78;;;1.98;;
55025;SDS011;40925;45.666;18.994;2023-07-31T05:59:48;3.45;;;2.00;;
55025;SDS011;40925;45.666;18.994;2023-07-31T06:02:13;5.05;;;1.90;;
55025;SDS011;40925;45.666;18.994;2023-07-31T06:04:39;3.15;;;1.63;;
55025;SDS011;40925;45.666;18.994;2023-07-31T06:07:05;3.45;;;1.90;;
55025;SDS011;40925;45.666;18.994;2023-07-31T06:09:31;2.60;;;1.88;;
55025;SDS011;40925;45.666;18.994;2023-07-31T06:11:57;2.90;;;1.95;;
55025;SDS011;40925;45.666;18.994;2023-07-31T06:14:23;4.53;;;1.95;;
55025;SDS011;40925;45.666;18.994;2023-07-31T06:16:49;2.45;;;1.77;;
55025;SDS011;40925;45.666;18.994;2023-07-31T06:19:15;2.72;;;1.70;;
55025;SDS011;40925;45.666;18.994;2023-07-31T06:21:41;4.20;;;1.88;;
55025;SDS011;40925;45.666;18.994;2023-07-31T06:24:09;4.13;;;1.80;;
55025;SDS011;40925;45.666;18.994;2023-07-31T06:26:35;3.95;;;1.85;;
55025;SDS011;40925;45.666;18.994;2023-07-31T06:29:00;3.95;;;2.03;;
55025;SDS011;40925;45.666;18.994;2023-07-31T06:31:26;3.47;;;1.73;;
55025;SDS011;40925;45.666;18.994;2023-07-31T06:33:52;2.90;;;1.88;;
55025;SDS011;40925;45.666;18.994;2023-07-31T06:36:19;3.08;;;1.67;;
55025;SDS011;40925;45.666;18.994;2023-07-31T06:38:44;2.75;;;1.77;;
55025;SDS011;40925;45.666;18.994;2023-07-31T06:41:10;4.05;;;1.98;;
55025;SDS011;40925;45.666;18.994;2023-07-31T06:43:36;4.35;;;1.95;;
55025;SDS011;40925;45.666;18.994;2023-07-31T06:46:06;3.72;;;1.85;;
55025;SDS011;40925;45.666;18.994;2023-07-31T06:48:32;2.63;;;1.70;;
55025;SDS011;40925;45.666;18.994;2023-07-31T06:50:59;3.25;;;2.00;;
55025;SDS011;40925;45.666;18.994;2023-07-31T06:53:25;2.58;;;1.77;;
55025;SDS011;40925;45.666;18.994;2023-07-31T06:55:51;2.42;;;1.83;;
55025;SDS011;40925;45.666;18.994;2023-07-31T06:58:17;2.90;;;1.85;;
55025;SDS011;40925;45.666;18.994;2023-07-31T07:00:43;2.83;;;1.70;;
55025;SDS011;40925;45.666;18.994;2023-07-31T07:03:12;2.65;;;1.60;;
55025;SDS011;40925;45.666;18.994;2023-07-31T07:05:39;2.60;;;1.88;;
55025;SDS011;40925;45.666;18.994;2023-07-31T07:08:06;3.35;;;1.75;;
55025;SDS011;40925;45.666;18.994;2023-07-31T07:10:32;3.70;;;1.63;;
55025;SDS011;40925;45.666;18.994;2023-07-31T07:12:57;4.35;;;1.90;;
55025;SDS011;40925;45.666;18.994;2023-07-31T07:15:23;2.95;;;1.80;;
55025;SDS011;40925;45.666;18.994;2023-07-31T07:17:49;3.30;;;1.83;;
55025;SDS011;40925;45.666;18.994;2023-07-31T07:20:16;2.80;;;1.70;;
55025;SDS011;40925;45.666;18.994;2023-07-31T07:22:42;4.35;;;1.58;;
55025;SDS011;40925;45.666;18.994;2023-07-31T07:25:13;2.80;;;1.60;;
55025;SDS011;40925;45.666;18.994;2023-07-31T07:27:39;5.90;;;1.70;;
55025;SDS011;40925;45.666;18.994;2023-07-31T07:30:05;2.90;;;1.80;;
55025;SDS011;40925;45.666;18.994;2023-07-31T07:32:31;2.50;;;1.45;;
55025;SDS011;40925;45.666;18.994;2023-07-31T07:34:57;2.80;;;1.83;;
55025;SDS011;40925;45.666;18.994;2023-07-31T07:37:23;2.67;;;1.60;;
55025;SDS011;40925;45.666;18.994;2023-07-31T07:39:50;3.10;;;1.70;;
55025;SDS011;40925;45.666;18.994;2023-07-31T07:42:15;2.70;;;1.63;;
55025;SDS011;40925;45.666;18.994;2023-07-31T07:44:42;2.75;;;1.67;;
55025;SDS011;40925;45.666;18.994;2023-07-31T07:47:07;2.55;;;1.80;;
55025;SDS011;40925;45.666;18.994;2023-07-31T07:49:34;3.33;;;1.63;;
55025;SDS011;40925;45.666;18.994;2023-07-31T07:52:00;3.80;;;1.60;;
55025;SDS011;40925;45.666;18.994;2023-07-31T07:54:29;3.08;;;1.60;;
55025;SDS011;40925;45.666;18.994;2023-07-31T07:56:56;3.58;;;1.60;;
55025;SDS011;40925;45.666;18.994;2023-07-31T07:59:23;2.67;;;1.63;;
55025;SDS011;40925;45.666;18.994;2023-07-31T08:01:49;3.83;;;1.60;;
55025;SDS011;40925;45.666;18.994;2023-07-31T08:04:15;3.28;;;1.70;;
55025;SDS011;40925;45.666;18.994;2023-07-31T08:06:42;3.25;;;1.77;;
55025;SDS011;40925;45.666;18.994;2023-07-31T08:09:10;2.47;;;1.60;;
55025;SDS011;40925;45.666;18.994;2023-07-31T08:11:37;3.33;;;1.77;;
55025;SDS011;40925;45.666;18.994;2023-07-31T08:14:03;3.13;;;1.70;;
55025;SDS011;40925;45.666;18.994;2023-07-31T08:16:29;3.30;;;1.83;;
55025;SDS011;40925;45.666;18.994;2023-07-31T08:18:54;2.70;;;1.60;;
55025;SDS011;40925;45.666;18.994;2023-07-31T08:21:21;2.53;;;1.50;;
55025;SDS011;40925;45.666;18.994;2023-07-31T08:23:49;4.10;;;1.55;;
55025;SDS011;40925;45.666;18.994;2023-07-31T08:26:16;2.55;;;1.67;;
55025;SDS011;40925;45.666;18.994;2023-07-31T08:28:42;3.15;;;1.60;;
55025;SDS011;40925;45.666;18.994;2023-07-31T08:31:08;3.30;;;1.65;;
55025;SDS011;40925;45.666;18.994;2023-07-31T08:33:35;2.65;;;1.60;;
55025;SDS011;40925;45.666;18.994;2023-07-31T08:36:01;2.38;;;1.42;;
55025;SDS011;40925;45.666;18.994;2023-07-31T08:38:27;3.20;;;1.58;;
55025;SDS011;40925;45.666;18.994;2023-07-31T08:40:56;2.55;;;1.60;;
55025;SDS011;40925;45.666;18.994;2023-07-31T08:43:22;2.40;;;1.48;;
55025;SDS011;40925;45.666;18.994;2023-07-31T08:45:51;3.20;;;1.70;;
55025;SDS011;40925;45.666;18.994;2023-07-31T08:48:18;3.50;;;1.60;;
55025;SDS011;40925;45.666;18.994;2023-07-31T08:50:46;4.38;;;1.75;;
55025;SDS011;40925;45.666;18.994;2023-07-31T08:53:11;3.20;;;1.77;;
55025;SDS011;40925;45.666;18.994;2023-07-31T08:55:42;3.47;;;1.50;;
55025;SDS011;40925;45.666;18.994;2023-07-31T08:58:08;2.75;;;1.60;;
55025;SDS011;40925;45.666;18.994;2023-07-31T09:00:35;3.88;;;1.70;;
55025;SDS011;40925;45.666;18.994;2023-07-31T09:03:02;2.25;;;1.50;;
55025;SDS011;40925;45.666;18.994;2023-07-31T09:05:29;3.67;;;1.60;;
55025;SDS011;40925;45.666;18.994;2023-07-31T09:07:56;2.50;;;1.50;;
55025;SDS011;40925;45.666;18.994;2023-07-31T09:10:23;4.65;;;1.50;;
55025;SDS011;40925;45.666;18.994;2023-07-31T09:12:49;3.05;;;1.70;;
55025;SDS011;40925;45.666;18.994;2023-07-31T09:15:16;2.70;;;1.70;;
55025;SDS011;40925;45.666;18.994;2023-07-31T09:17:46;3.90;;;1.58;;
55025;SDS011;40925;45.666;18.994;2023-07-31T09:20:13;3.05;;;1.60;;
55025;SDS011;40925;45.666;18.994;2023-07-31T09:22:39;2.80;;;1.67;;
55025;SDS011;40925;45.666;18.994;2023-07-31T09:25:19;2.08;;;1.30;;
55025;SDS011;40925;45.666;18.994;2023-07-31T09:27:46;2.30;;;1.48;;
55025;SDS011;40925;45.666;18.994;2023-07-31T09:30:12;3.95;;;1.40;;
55025;SDS011;40925;45.666;18.994;2023-07-31T09:32:38;2.38;;;1.50;;
55025;SDS011;40925;45.666;18.994;2023-07-31T09:35:13;2.47;;;1.50;;
55025;SDS011;40925;45.666;18.994;2023-07-31T09:37:39;2.72;;;1.60;;
55025;SDS011;40925;45.666;18.994;2023-07-31T09:40:05;2.70;;;1.60;;
55025;SDS011;40925;45.666;18.994;2023-07-31T09:48:23;2.50;;;1.60;;
55025;SDS011;40925;45.666;18.994;2023-07-31T09:50:55;3.53;;;1.67;;
55025;SDS011;40925;45.666;18.994;2023-07-31T09:53:27;2.78;;;1.50;;
55025;SDS011;40925;45.666;18.994;2023-07-31T09:55:55;3.50;;;1.52;;
55025;SDS011;40925;45.666;18.994;2023-07-31T09:58:23;3.80;;;1.85;;
55025;SDS011;40925;45.666;18.994;2023-07-31T10:00:50;2.65;;;1.50;;
55025;SDS011;40925;45.666;18.994;2023-07-31T10:03:16;3.80;;;1.50;;
55025;SDS011;40925;45.666;18.994;2023-07-31T10:05:45;3.60;;;1.60;;
55025;SDS011;40925;45.666;18.994;2023-07-31T10:08:13;3.42;;;1.60;;
55025;SDS011;40925;45.666;18.994;2023-07-31T10:10:43;2.45;;;1.50;;
55025;SDS011;40925;45.666;18.994;2023-07-31T10:13:10;4.10;;;1.60;;
55025;SDS011;40925;45.666;18.994;2023-07-31T10:15:36;4.60;;;2.10;;
55025;SDS011;40925;45.666;18.994;2023-07-31T10:18:02;3.50;;;1.52;;
55025;SDS011;40925;45.666;18.994;2023-07-31T10:20:31;3.35;;;1.83;;
55025;SDS011;40925;45.666;18.994;2023-07-31T10:22:57;3.63;;;1.63;;
55025;SDS011;40925;45.666;18.994;2023-07-31T10:25:24;3.72;;;1.80;;
55025;SDS011;40925;45.666;18.994;2023-07-31T10:27:52;3.85;;;1.60;;
55025;SDS011;40925;45.666;18.994;2023-07-31T10:30:21;4.63;;;1.40;;
55025;SDS011;40925;45.666;18.994;2023-07-31T10:32:51;4.65;;;1.70;;
55025;SDS011;40925;45.666;18.994;2023-07-31T10:35:19;2.80;;;1.58;;
55025;SDS011;40925;45.666;18.994;2023-07-31T10:37:47;3.22;;;1.50;;
55025;SDS011;40925;45.666;18.994;2023-07-31T10:40:47;4.30;;;1.90;;
55025;SDS011;40925;45.666;18.994;2023-07-31T10:43:06;2.42;;;1.45;;
55025;SDS011;40925;45.666;18.994;2023-07-31T10:48:06;3.13;;;1.80;;
55025;SDS011;40925;45.666;18.994;2023-07-31T10:50:38;3.58;;;1.65;;
55025;SDS011;40925;45.666;18.994;2023-07-31T10:53:10;2.78;;;1.50;;
55025;SDS011;40925;45.666;18.994;2023-07-31T10:55:48;3.70;;;1.88;;
55025;SDS011;40925;45.666;18.994;2023-07-31T10:58:18;3.35;;;1.80;;
55025;SDS011;40925;45.666;18.994;2023-07-31T11:00:45;2.90;;;1.50;;
55025;SDS011;40925;45.666;18.994;2023-07-31T11:08:13;3.65;;;1.70;;
55025;SDS011;40925;45.666;18.994;2023-07-31T11:10:39;3.17;;;1.80;;
55025;SDS011;40925;45.666;18.994;2023-07-31T11:13:06;3.58;;;1.70;;
55025;SDS011;40925;45.666;18.994;2023-07-31T11:15:32;2.95;;;1.55;;
55025;SDS011;40925;45.666;18.994;2023-07-31T11:18:00;2.33;;;1.50;;
55025;SDS011;40925;45.666;18.994;2023-07-31T11:20:30;2.92;;;1.40;;
55025;SDS011;40925;45.666;18.994;2023-07-31T11:23:00;2.83;;;1.52;;
55025;SDS011;40925;45.666;18.994;2023-07-31T11:25:31;3.25;;;1.60;;
55025;SDS011;40925;45.666;18.994;2023-07-31T11:28:07;3.65;;;1.70;;
55025;SDS011;40925;45.666;18.994;2023-07-31T11:30:33;4.40;;;1.75;;
55025;SDS011;40925;45.666;18.994;2023-07-31T11:33:03;2.80;;;1.45;;
55025;SDS011;40925;45.666;18.994;2023-07-31T11:35:30;3.45;;;1.50;;
55025;SDS011;40925;45.666;18.994;2023-07-31T11:37:57;4.60;;;1.80;;
55025;SDS011;40925;45.666;18.994;2023-07-31T11:40:23;2.30;;;1.50;;
55025;SDS011;40925;45.666;18.994;2023-07-31T11:42:56;3.65;;;1.67;;
55025;SDS011;40925;45.666;18.994;2023-07-31T11:45:24;4.22;;;1.50;;
55025;SDS011;40925;45.666;18.994;2023-07-31T11:47:51;3.10;;;1.60;;
55025;SDS011;40925;45.666;18.994;2023-07-31T11:50:17;2.40;;;1.65;;
55025;SDS011;40925;45.666;18.994;2023-07-31T11:52:44;3.28;;;1.70;;
55025;SDS011;40925;45.666;18.994;2023-07-31T11:55:11;2.80;;;1.60;;
55025;SDS011;40925;45.666;18.994;2023-07-31T11:57:38;4.50;;;1.60;;
55025;SDS011;40925;45.666;18.994;2023-07-31T12:00:06;3.72;;;1.40;;
55025;SDS011;40925;45.666;18.994;2023-07-31T12:02:33;4.05;;;1.70;;
55025;SDS011;40925;45.666;18.994;2023-07-31T12:04:59;3.10;;;1.50;;
55025;SDS011;40925;45.666;18.994;2023-07-31T12:07:25;2.22;;;1.48;;
55025;SDS011;40925;45.666;18.994;2023-07-31T12:09:54;3.03;;;1.60;;
55025;SDS011;40925;45.666;18.994;2023-07-31T12:12:21;3.17;;;1.45;;
55025;SDS011;40925;45.666;18.994;2023-07-31T12:14:47;3.83;;;1.90;;
55025;SDS011;40925;45.666;18.994;2023-07-31T12:17:13;4.05;;;1.52;;
55025;SDS011;40925;45.666;18.994;2023-07-31T12:19:40;1.90;;;1.38;;
55025;SDS011;40925;45.666;18.994;2023-07-31T12:22:16;4.10;;;1.55;;
55025;SDS011;40925;45.666;18.994;2023-07-31T12:24:42;3.20;;;1.40;;
55025;SDS011;40925;45.666;18.994;2023-07-31T12:27:13;4.55;;;2.10;;
55025;SDS011;40925;45.666;18.994;2023-07-31T12:29:41;3.28;;;1.77;;
55025;SDS011;40925;45.666;18.994;2023-07-31T12:32:41;5.85;;;1.67;;
55025;SDS011;40925;45.666;18.994;2023-07-31T12:35:00;2.58;;;1.52;;
55025;SDS011;40925;45.666;18.994;2023-07-31T12:37:27;3.80;;;1.70;;
55025;SDS011;40925;45.666;18.994;2023-07-31T12:39:54;3.08;;;1.58;;
55025;SDS011;40925;45.666;18.994;2023-07-31T12:42:20;3.65;;;1.45;;
55025;SDS011;40925;45.666;18.994;2023-07-31T12:44:46;3.22;;;1.60;;
55025;SDS011;40925;45.666;18.994;2023-07-31T12:47:13;2.47;;;1.63;;
55025;SDS011;40925;45.666;18.994;2023-07-31T12:49:40;4.05;;;1.50;;
55025;SDS011;40925;45.666;18.994;2023-07-31T12:52:06;3.05;;;1.65;;
55025;SDS011;40925;45.666;18.994;2023-07-31T12:54:32;4.45;;;1.50;;
55025;SDS011;40925;45.666;18.994;2023-07-31T12:57:00;2.95;;;1.60;;
55025;SDS011;40925;45.666;18.994;2023-07-31T12:59:29;4.28;;;1.50;;
55025;SDS011;40925;45.666;18.994;2023-07-31T13:01:55;3.08;;;1.63;;
55025;SDS011;40925;45.666;18.994;2023-07-31T13:04:21;3.83;;;1.77;;
55025;SDS011;40925;45.666;18.994;2023-07-31T13:06:47;3.40;;;1.73;;
55025;SDS011;40925;45.666;18.994;2023-07-31T13:09:14;2.58;;;1.58;;
55025;SDS011;40925;45.666;18.994;2023-07-31T13:11:42;2.67;;;1.50;;
55025;SDS011;40925;45.666;18.994;2023-07-31T13:14:08;4.10;;;1.83;;
55025;SDS011;40925;45.666;18.994;2023-07-31T13:16:34;2.80;;;1.40;;
55025;SDS011;40925;45.666;18.994;2023-07-31T13:19:00;3.05;;;1.45;;
55025;SDS011;40925;45.666;18.994;2023-07-31T13:21:26;3.28;;;1.40;;
55025;SDS011;40925;45.666;18.994;2023-07-31T13:23:55;2.80;;;1.67;;
55025;SDS011;40925;45.666;18.994;2023-07-31T13:26:24;3.75;;;1.50;;
55025;SDS011;40925;45.666;18.994;2023-07-31T13:28:50;2.75;;;1.60;;
55025;SDS011;40925;45.666;18.994;2023-07-31T13:31:17;2.42;;;1.60;;
55025;SDS011;40925;45.666;18.994;2023-07-31T13:33:43;2.60;;;1.65;;
55025;SDS011;40925;45.666;18.994;2023-07-31T13:36:09;2.25;;;1.42;;
55025;SDS011;40925;45.666;18.994;2023-07-31T13:38:36;5.20;;;1.90;;
55025;SDS011;40925;45.666;18.994;2023-07-31T13:41:02;2.40;;;1.60;;
55025;SDS011;40925;45.666;18.994;2023-07-31T13:43:30;3.83;;;2.00;;
55025;SDS011;40925;45.666;18.994;2023-07-31T13:45:56;2.45;;;1.45;;
55025;SDS011;40925;45.666;18.994;2023-07-31T13:48:22;2.30;;;1.40;;
55025;SDS011;40925;45.666;18.994;2023-07-31T13:50:48;3.60;;;1.80;;
55025;SDS011;40925;45.666;18.994;2023-07-31T13:53:14;2.88;;;1.50;;
55025;SDS011;40925;45.666;18.994;2023-07-31T13:55:40;3.85;;;1.52;;
55025;SDS011;40925;45.666;18.994;2023-07-31T13:58:10;2.50;;;1.48;;
55025;SDS011;40925;45.666;18.994;2023-07-31T14:00:36;2.83;;;1.45;;
55025;SDS011;40925;45.666;18.994;2023-07-31T14:03:02;2.83;;;1.40;;
55025;SDS011;40925;45.666;18.994;2023-07-31T14:05:28;4.43;;;1.50;;
55025;SDS011;40925;45.666;18.994;2023-07-31T14:07:54;3.78;;;1.52;;
55025;SDS011;40925;45.666;18.994;2023-07-31T14:10:21;3.90;;;1.60;;
55025;SDS011;40925;45.666;18.994;2023-07-31T14:12:47;3.20;;;1.50;;
55025;SDS011;40925;45.666;18.994;2023-07-31T14:15:13;3.03;;;1.60;;
55025;SDS011;40925;45.666;18.994;2023-07-31T14:17:39;3.33;;;1.48;;
55025;SDS011;40925;45.666;18.994;2023-07-31T14:20:05;3.97;;;1.63;;
55025;SDS011;40925;45.666;18.994;2023-07-31T14:22:33;3.92;;;1.65;;
55025;SDS011;40925;45.666;18.994;2023-07-31T14:24:59;2.53;;;1.52;;
55025;SDS011;40925;45.666;18.994;2023-07-31T14:27:25;3.80;;;1.73;;
55025;SDS011;40925;45.666;18.994;2023-07-31T14:29:51;3.97;;;1.63;;
55025;SDS011;40925;45.666;18.994;2023-07-31T14:32:17;3.90;;;1.50;;
55025;SDS011;40925;45.666;18.994;2023-07-31T14:34:43;2.22;;;1.45;;
55025;SDS011;40925;45.666;18.994;2023-07-31T14:37:10;3.35;;;1.65;;
55025;SDS011;40925;45.666;18.994;2023-07-31T14:39:36;3.05;;;1.65;;
55025;SDS011;40925;45.666;18.994;2023-07-31T14:42:02;3.97;;;1.50;;
55025;SDS011;40925;45.666;18.994;2023-07-31T14:44:28;3.55;;;1.60;;
55025;SDS011;40925;45.666;18.994;2023-07-31T14:46:54;3.15;;;1.60;;
55025;SDS011;40925;45.666;18.994;2023-07-31T14:49:20;2.45;;;1.55;;